createdAt,value
2022-08-11T00:02:15.054Z,47.44
2022-08-11T00:04:26.815Z,47.36
2022-08-11T00:06:38.060Z,48.90
2022-08-11T00:08:53.369Z,49.27
2022-08-11T00:11:05.284Z,49.31
2022-08-11T00:13:14.984Z,49.35
2022-08-11T00:15:30.784Z,48.81
2022-08-11T00:17:40.810Z,49.04
2022-08-11T00:20:13.769Z,48.91
2022-08-11T00:22:25.536Z,49.22
2022-08-11T00:24:50.946Z,48.95
2022-08-11T00:27:04.101Z,49.21
2022-08-11T00:29:13.136Z,47.71
2022-08-11T00:31:32.768Z,48.48
2022-08-11T00:33:45.438Z,49.21
2022-08-11T00:35:59.611Z,49.37
2022-08-11T00:38:10.172Z,47.89
2022-08-11T00:40:26.406Z,47.78
2022-08-11T00:42:45.262Z,47.07
2022-08-11T00:45:07.987Z,47.09
2022-08-11T00:47:33.424Z,47.96
2022-08-11T00:49:57.128Z,47.55
2022-08-11T00:52:20.651Z,47.03
2022-08-11T00:54:46.621Z,48.16
2022-08-11T00:57:36.754Z,47.54
2022-08-11T01:00:07.087Z,49.64
2022-08-11T01:03:00.079Z,48.29
2022-08-11T01:05:43.111Z,48.88
2022-08-11T01:08:28.818Z,48.91
2022-08-11T01:10:56.049Z,47.40
2022-08-11T01:13:18.103Z,48.20
2022-08-11T01:16:08.093Z,47.50
2022-08-11T01:18:48.777Z,47.70
2022-08-11T01:21:44.353Z,48.91
2022-08-11T01:24:45.015Z,48.38
2022-08-11T01:27:18.894Z,48.34
2022-08-11T01:30:00.405Z,49.28
2022-08-11T01:32:35.060Z,48.71
2022-08-11T01:35:24.645Z,48.62
2022-08-11T01:38:08.818Z,48.63
2022-08-11T01:40:33.460Z,48.41
2022-08-11T01:43:30.559Z,48.47
2022-08-11T01:45:46.613Z,48.62
2022-08-11T01:48:05.869Z,49.61
2022-08-11T01:50:31.030Z,49.69
2022-08-11T01:52:54.174Z,49.95
2022-08-11T01:55:15.980Z,51.49
2022-08-11T01:57:37.470Z,51.43
2022-08-11T01:59:54.832Z,51.21
2022-08-11T02:02:46.754Z,51.94
2022-08-11T02:05:00.537Z,51.92
2022-08-11T02:07:22.253Z,51.75
2022-08-11T02:09:52.599Z,51.88
2022-08-11T02:12:04.090Z,52.22
2022-08-11T02:14:22.565Z,53.02
2022-08-11T02:16:46.146Z,52.02
2022-08-11T02:19:16.478Z,51.97
2022-08-11T02:21:51.661Z,51.22
2022-08-11T02:24:08.254Z,52.38
2022-08-11T02:26:23.436Z,51.30
2022-08-11T02:28:38.996Z,51.26
2022-08-11T02:32:23.878Z,51.23
2022-08-11T02:33:47.856Z,51.34
2022-08-11T02:36:06.806Z,51.42
2022-08-11T02:38:27.603Z,52.25
2022-08-11T02:40:49.874Z,53.05
2022-08-11T02:43:15.334Z,53.76
2022-08-11T02:45:40.596Z,53.95
2022-08-11T02:48:13.570Z,55.50
2022-08-11T02:50:33.964Z,56.85
2022-08-11T02:52:50.551Z,57.36
2022-08-11T02:55:56.614Z,57.51
2022-08-11T02:57:58.161Z,59.16
2022-08-11T03:00:11.000Z,58.67
2022-08-11T03:02:44.369Z,59.23
2022-08-11T03:05:05.073Z,59.13
2022-08-11T03:07:28.948Z,59.29
2022-08-11T03:09:50.343Z,59.50
2022-08-11T03:12:18.123Z,59.58
2022-08-11T03:14:46.534Z,60.71
2022-08-11T03:17:00.463Z,60.20
2022-08-11T03:19:19.111Z,60.26
2022-08-11T03:22:01.593Z,60.44
2022-08-11T03:24:08.309Z,60.29
2022-08-11T03:26:27.222Z,60.31
2022-08-11T03:28:41.188Z,60.78
2022-08-11T03:31:00.078Z,61.75
2022-08-11T03:33:31.087Z,62.16
2022-08-11T03:35:49.792Z,61.84
2022-08-11T03:38:05.744Z,61.09
2022-08-11T03:40:49.254Z,61.55
2022-08-11T03:43:04.591Z,62.23
2022-08-11T03:45:29.175Z,61.98
2022-08-11T03:47:55.657Z,61.69
2022-08-11T03:50:12.090Z,62.55
2022-08-11T03:52:30.246Z,62.85
2022-08-11T03:54:51.195Z,61.81
2022-08-11T03:57:43.451Z,63.11
2022-08-11T04:00:23.996Z,62.96
2022-08-11T04:02:55.787Z,62.70
2022-08-11T04:05:44.749Z,64.02
2022-08-11T04:08:23.801Z,63.29
2022-08-11T04:11:04.588Z,64.19
2022-08-11T04:13:45.423Z,63.44
2022-08-11T04:16:16.459Z,63.02
2022-08-11T04:18:57.433Z,62.42
2022-08-11T04:21:25.486Z,63.01
2022-08-11T04:24:36.255Z,63.34
2022-08-11T04:26:59.318Z,63.14
2022-08-11T04:29:36.006Z,63.83
2022-08-11T04:32:10.762Z,63.45
2022-08-11T04:34:42.679Z,63.82
2022-08-11T04:37:25.769Z,64.34
2022-08-11T04:39:51.500Z,62.94
2022-08-11T04:42:45.401Z,61.03
2022-08-11T04:45:33.964Z,57.21
2022-08-11T04:48:12.990Z,53.56
2022-08-11T04:51:04.036Z,50.30
2022-08-11T04:53:42.769Z,47.55
2022-08-11T04:56:27.244Z,43.95
2022-08-11T04:59:05.165Z,41.22
2022-08-11T05:01:39.708Z,38.32
2022-08-11T05:04:44.287Z,37.39
2022-08-11T05:07:26.090Z,35.52
2022-08-11T05:10:05.864Z,33.79
2022-08-11T05:12:32.973Z,31.48
2022-08-11T05:15:03.689Z,30.78
2022-08-11T05:17:29.957Z,30.14
2022-08-11T05:19:51.859Z,29.40
2022-08-11T05:22:17.031Z,28.52
2022-08-11T05:24:45.755Z,28.02
2022-08-11T05:27:12.835Z,27.87
2022-08-11T05:29:51.707Z,27.47
2022-08-11T05:32:16.377Z,26.90
2022-08-11T05:34:40.890Z,27.54
2022-08-11T05:36:59.120Z,28.98
2022-08-11T05:39:36.135Z,27.90
2022-08-11T05:41:58.362Z,27.94
2022-08-11T05:44:22.257Z,27.79
2022-08-11T05:46:44.278Z,24.85
2022-08-11T05:49:09.091Z,25.89
2022-08-11T05:51:31.055Z,25.07
2022-08-11T05:53:58.396Z,25.82
2022-08-11T05:56:21.995Z,25.25
2022-08-11T05:58:39.764Z,25.78
2022-08-11T06:00:50.800Z,25.70
2022-08-11T06:03:04.200Z,25.77
2022-08-11T06:05:13.330Z,23.66
2022-08-11T06:07:29.978Z,24.30
2022-08-11T06:09:57.644Z,23.96
2022-08-11T06:12:11.587Z,23.49
2022-08-11T06:14:21.232Z,27.72
2022-08-11T06:16:31.160Z,27.63
2022-08-11T06:18:40.879Z,29.92
2022-08-11T06:20:51.301Z,28.25
2022-08-11T06:23:03.940Z,27.74
2022-08-11T06:25:14.454Z,26.57
2022-08-11T06:27:26.884Z,27.55
2022-08-11T06:29:38.127Z,25.87
2022-08-11T06:32:13.066Z,28.17
2022-08-11T06:34:38.223Z,27.26
2022-08-11T06:36:58.192Z,28.73
2022-08-11T06:39:21.385Z,29.86
2022-08-11T06:41:43.741Z,29.89
2022-08-11T06:44:05.589Z,30.44
2022-08-11T06:46:28.146Z,30.28
2022-08-11T06:48:37.895Z,27.76
2022-08-11T06:51:05.013Z,28.73
2022-08-11T06:53:13.808Z,29.99
2022-08-11T06:55:57.673Z,29.14
2022-08-11T06:58:20.580Z,30.77
2022-08-11T07:00:35.653Z,31.28
2022-08-11T07:02:52.480Z,29.74
2022-08-11T07:05:04.470Z,29.02
2022-08-11T07:08:34.798Z,30.95
2022-08-11T07:11:11.060Z,29.95
2022-08-11T07:13:39.389Z,31.26
2022-08-11T07:16:12.979Z,30.37
2022-08-11T07:18:41.083Z,31.43
2022-08-11T07:21:02.569Z,31.09
2022-08-11T07:23:25.230Z,30.25
2022-08-11T07:25:48.640Z,28.71
2022-08-11T07:28:18.319Z,28.92
2022-08-11T07:30:28.765Z,29.16
2022-08-11T07:32:47.392Z,29.37
2022-08-11T07:35:02.378Z,30.09
2022-08-11T07:37:16.333Z,29.94
2022-08-11T07:39:31.659Z,28.76
2022-08-11T07:41:43.730Z,27.16
2022-08-11T07:43:55.725Z,26.77
2022-08-11T07:46:19.704Z,28.75
2022-08-11T07:48:44.072Z,28.61
2022-08-11T07:51:05.251Z,26.78
2022-08-11T07:53:16.019Z,24.27
2022-08-11T07:55:49.143Z,27.91
2022-08-11T07:58:15.249Z,29.48
2022-08-11T08:00:37.490Z,30.83
2022-08-11T08:02:59.177Z,30.29
2022-08-11T08:05:23.684Z,32.12
2022-08-11T08:07:44.547Z,33.70
2022-08-11T08:10:09.137Z,35.82
2022-08-11T08:12:37.629Z,35.77
2022-08-11T08:14:58.523Z,35.85
2022-08-11T08:17:24.260Z,36.04
2022-08-11T08:19:34.180Z,36.24
2022-08-11T08:21:46.910Z,36.67
2022-08-11T08:23:57.687Z,35.86
2022-08-11T08:26:31.745Z,36.20
2022-08-11T08:28:40.308Z,36.66
2022-08-11T08:30:50.759Z,37.12
2022-08-11T08:33:01.286Z,36.90
2022-08-11T08:35:11.607Z,37.88
2022-08-11T08:37:46.117Z,38.10
2022-08-11T08:39:55.829Z,37.03
2022-08-11T08:42:08.753Z,37.13
2022-08-11T08:44:37.810Z,37.18
2022-08-11T08:46:49.399Z,37.57
2022-08-11T08:48:58.536Z,36.35
2022-08-11T08:51:25.104Z,35.95
2022-08-11T08:53:39.251Z,35.69
2022-08-11T08:56:04.367Z,36.69
2022-08-11T08:58:14.797Z,36.68
2022-08-11T09:00:23.847Z,35.88
2022-08-11T09:02:34.007Z,35.52
2022-08-11T09:04:47.742Z,35.16
2022-08-11T09:06:57.291Z,34.64
2022-08-11T09:09:09.092Z,34.73
2022-08-11T09:11:30.547Z,34.26
2022-08-11T09:13:44.661Z,33.66
2022-08-11T09:15:56.274Z,32.26
2022-08-11T09:18:06.588Z,31.33
2022-08-11T09:20:18.613Z,31.06
2022-08-11T09:22:40.798Z,31.08
2022-08-11T09:25:04.898Z,29.93
2022-08-11T09:27:16.173Z,29.41
2022-08-11T09:29:24.992Z,29.52
2022-08-11T09:31:40.135Z,29.21
2022-08-11T09:33:50.078Z,29.05
2022-08-11T09:36:21.022Z,29.72
2022-08-11T09:38:47.348Z,31.80
2022-08-11T09:41:00.820Z,30.86
2022-08-11T09:43:25.543Z,29.12
2022-08-11T09:45:40.534Z,27.99
2022-08-11T09:47:49.552Z,27.96
2022-08-11T09:50:02.813Z,25.93
2022-08-11T09:52:11.367Z,27.31
2022-08-11T09:54:23.501Z,28.59
2022-08-11T09:56:54.126Z,28.04
2022-08-11T09:59:06.389Z,29.78
2022-08-11T10:01:27.666Z,27.27
2022-08-11T10:03:40.594Z,27.30
2022-08-11T10:06:07.902Z,26.72
2022-08-11T10:08:21.964Z,26.53
2022-08-11T10:10:30.740Z,27.41
2022-08-11T10:12:50.495Z,26.63
2022-08-11T10:15:18.225Z,26.32
2022-08-11T10:17:27.754Z,26.39
2022-08-11T10:19:41.985Z,26.29
2022-08-11T10:22:14.879Z,26.19
2022-08-11T10:24:35.910Z,26.98
2022-08-11T10:27:00.095Z,26.82
2022-08-11T10:29:25.833Z,26.91
2022-08-11T10:31:59.431Z,26.78
2022-08-11T10:34:13.685Z,26.68
2022-08-11T10:36:24.406Z,26.86
2022-08-11T10:38:33.856Z,26.98
2022-08-11T10:40:44.175Z,27.66
2022-08-11T10:43:07.740Z,27.85
2022-08-11T10:45:31.801Z,26.76
2022-08-11T10:47:46.717Z,26.26
2022-08-11T10:50:11.186Z,25.96
2022-08-11T10:52:34.911Z,25.58
2022-08-11T10:54:58.678Z,24.92
2022-08-11T10:57:19.939Z,26.51
2022-08-11T10:59:31.077Z,27.34
2022-08-11T11:01:45.729Z,26.96
2022-08-11T11:03:59.044Z,27.02
2022-08-11T11:06:29.403Z,25.26
2022-08-11T11:09:01.526Z,25.04
2022-08-11T11:11:12.709Z,25.95
2022-08-11T11:13:42.546Z,26.62
2022-08-11T11:16:14.458Z,26.44
2022-08-11T11:18:29.174Z,25.99
2022-08-11T11:20:47.480Z,26.92
2022-08-11T11:22:59.501Z,25.23
2022-08-11T11:25:24.207Z,26.41
2022-08-11T11:27:46.518Z,26.34
2022-08-11T11:30:03.072Z,26.30
2022-08-11T11:32:30.799Z,26.33
2022-08-11T11:35:14.868Z,25.78
2022-08-11T11:37:26.905Z,25.75
2022-08-11T11:39:35.987Z,25.86
2022-08-11T11:41:45.969Z,26.52
2022-08-11T11:43:54.877Z,25.96
2022-08-11T11:46:03.657Z,26.17
2022-08-11T11:48:15.069Z,26.44
2022-08-11T11:50:29.378Z,26.11
2022-08-11T11:52:45.875Z,25.79
2022-08-11T11:54:58.488Z,25.85
2022-08-11T11:57:21.311Z,26.72
2022-08-11T11:59:44.051Z,26.24
2022-08-11T12:01:52.850Z,26.55
2022-08-11T12:04:02.245Z,26.75
2022-08-11T12:06:14.472Z,26.43
2022-08-11T12:08:28.925Z,26.15
2022-08-11T12:10:37.609Z,26.10
2022-08-11T12:12:59.063Z,25.54
2022-08-11T12:15:11.125Z,26.75
2022-08-11T12:17:19.565Z,26.05
2022-08-11T12:19:35.798Z,26.48
2022-08-11T12:22:07.030Z,26.00
2022-08-11T12:24:30.294Z,26.73
2022-08-11T12:27:01.459Z,25.28
2022-08-11T12:29:27.362Z,26.41
2022-08-11T12:31:38.233Z,25.51
2022-08-11T12:33:48.725Z,25.36
2022-08-11T12:36:01.583Z,26.01
2022-08-11T12:38:12.815Z,25.01
2022-08-11T12:41:11.876Z,26.15
2022-08-11T12:43:39.050Z,25.08
2022-08-11T12:45:48.584Z,26.09
2022-08-11T12:48:59.079Z,25.58
2022-08-11T12:51:01.384Z,25.61
2022-08-11T12:53:13.235Z,25.86
2022-08-11T12:55:40.377Z,24.91
2022-08-11T12:58:08.086Z,25.57
2022-08-11T13:00:30.841Z,25.54
2022-08-11T13:02:52.112Z,24.43
2022-08-11T13:05:02.477Z,25.49
2022-08-11T13:07:11.597Z,24.87
2022-08-11T13:09:20.409Z,24.97
2022-08-11T13:11:56.380Z,25.31
2022-08-11T13:14:12.097Z,25.52
2022-08-11T13:16:25.628Z,24.58
2022-08-11T13:18:33.617Z,25.67
2022-08-11T13:20:44.470Z,24.95
2022-08-11T13:22:54.415Z,24.75
2022-08-11T13:25:02.986Z,24.40
2022-08-11T13:27:14.308Z,24.27
2022-08-11T13:29:24.490Z,24.83
2022-08-11T13:31:30.465Z,24.22
2022-08-11T13:33:43.654Z,24.17
2022-08-11T13:35:56.119Z,24.59
2022-08-11T13:38:19.534Z,24.89
2022-08-11T13:40:45.729Z,24.09
2022-08-11T13:43:06.375Z,24.80
2022-08-11T13:45:15.279Z,24.10
2022-08-11T13:47:25.052Z,24.19
2022-08-11T13:49:34.553Z,24.90
2022-08-11T13:51:43.592Z,25.09
2022-08-11T13:53:52.522Z,23.58
2022-08-11T13:56:06.447Z,25.02
2022-08-11T13:58:39.894Z,25.05
2022-08-11T14:00:53.165Z,24.84
2022-08-11T14:03:02.217Z,24.30
2022-08-11T14:05:16.259Z,23.97
2022-08-11T14:07:28.800Z,23.36
2022-08-11T14:09:40.579Z,24.13
2022-08-11T14:12:21.054Z,24.16
2022-08-11T14:14:36.582Z,24.09
2022-08-11T14:16:47.621Z,24.23
2022-08-11T14:18:59.033Z,23.97
2022-08-11T14:21:22.939Z,23.76
2022-08-11T14:23:34.774Z,23.97
2022-08-11T14:26:05.618Z,23.82
2022-08-11T14:28:32.924Z,24.37
2022-08-11T14:31:01.224Z,23.86
2022-08-11T14:33:17.182Z,23.78
2022-08-11T14:35:31.369Z,23.81
2022-08-11T14:37:40.579Z,23.80
2022-08-11T14:39:51.157Z,23.71
2022-08-11T14:42:14.450Z,23.03
2022-08-11T14:44:35.501Z,23.22
2022-08-11T14:46:59.602Z,23.17
2022-08-11T14:49:08.399Z,23.18
2022-08-11T14:51:16.710Z,23.24
2022-08-11T14:53:26.825Z,24.30
2022-08-11T14:55:53.195Z,23.48
2022-08-11T14:58:02.462Z,23.53
2022-08-11T15:00:15.639Z,23.37
2022-08-11T15:02:39.723Z,23.40
2022-08-11T15:04:48.697Z,24.05
2022-08-11T15:06:57.318Z,23.69
2022-08-11T15:09:08.988Z,24.49
2022-08-11T15:11:32.378Z,24.13
2022-08-11T15:13:40.831Z,24.92
2022-08-11T15:16:05.760Z,22.90
2022-08-11T15:18:18.760Z,22.60
2022-08-11T15:20:41.905Z,22.85
2022-08-11T15:23:02.856Z,23.22
2022-08-11T15:25:11.912Z,23.24
2022-08-11T15:27:35.736Z,23.07
2022-08-11T15:29:58.664Z,23.74
2022-08-11T15:32:20.156Z,23.69
2022-08-11T15:34:44.807Z,23.61
2022-08-11T15:37:10.437Z,23.72
2022-08-11T15:39:24.527Z,23.51
2022-08-11T15:41:58.776Z,24.21
2022-08-11T15:44:44.579Z,23.44
2022-08-11T15:47:01.773Z,23.68
2022-08-11T15:49:21.815Z,24.04
2022-08-11T15:51:39.120Z,23.95
2022-08-11T15:53:56.661Z,23.98
2022-08-11T15:56:07.165Z,24.79
2022-08-11T15:58:29.534Z,23.91
2022-08-11T16:00:53.987Z,24.21
2022-08-11T16:03:24.109Z,24.24
2022-08-11T16:05:53.249Z,23.74
2022-08-11T16:08:04.698Z,23.50
2022-08-11T16:10:21.845Z,24.06
2022-08-11T16:12:34.205Z,24.57
2022-08-11T16:14:58.823Z,23.83
2022-08-11T16:17:10.106Z,23.79
2022-08-11T16:19:19.879Z,24.48
2022-08-11T16:21:35.050Z,23.89
2022-08-11T16:23:50.541Z,24.12
2022-08-11T16:27:07.646Z,24.58
2022-08-11T16:28:34.982Z,25.35
2022-08-11T16:30:46.627Z,24.75
2022-08-11T16:32:56.457Z,24.81
2022-08-11T16:35:20.367Z,24.68
2022-08-11T16:37:43.589Z,24.81
2022-08-11T16:39:55.252Z,25.10
2022-08-11T16:43:09.148Z,24.39
2022-08-11T16:44:56.447Z,25.09
2022-08-11T16:47:06.205Z,24.23
2022-08-11T16:49:20.054Z,23.80
2022-08-11T16:51:28.384Z,24.41
2022-08-11T16:53:59.570Z,25.12
2022-08-11T16:56:12.291Z,24.92
2022-08-11T16:58:33.651Z,24.29
2022-08-11T17:00:42.853Z,24.35
2022-08-11T17:03:06.713Z,24.92
2022-08-11T17:05:29.417Z,24.90
2022-08-11T17:07:54.257Z,24.79
2022-08-11T17:10:38.266Z,24.92
2022-08-11T17:13:05.294Z,24.54
2022-08-11T17:15:29.974Z,25.06
2022-08-11T17:17:41.681Z,25.03
2022-08-11T17:20:40.173Z,25.71
2022-08-11T17:22:35.897Z,25.16
2022-08-11T17:24:48.160Z,25.85
2022-08-11T17:26:58.942Z,25.01
2022-08-11T17:29:10.330Z,25.55
2022-08-11T17:31:32.054Z,25.57
2022-08-11T17:33:54.235Z,25.67
2022-08-11T17:36:03.912Z,25.87
2022-08-11T17:38:16.022Z,25.17
2022-08-11T17:40:26.329Z,24.92
2022-08-11T17:42:50.541Z,25.32
2022-08-11T17:45:17.214Z,25.41
2022-08-11T17:47:41.958Z,25.57
2022-08-11T17:49:54.091Z,25.52
2022-08-11T17:52:25.380Z,25.66
2022-08-11T17:54:50.642Z,25.59
2022-08-11T17:57:21.406Z,25.67
2022-08-11T17:59:43.826Z,25.83
2022-08-11T18:02:33.969Z,26.26
2022-08-11T18:04:45.189Z,26.10
2022-08-11T18:06:56.976Z,27.30
2022-08-11T18:09:20.074Z,26.53
2022-08-11T18:12:06.389Z,26.82
2022-08-11T18:14:27.807Z,26.91
2022-08-11T18:16:48.882Z,27.72
2022-08-11T18:19:12.109Z,27.96
2022-08-11T18:21:43.284Z,28.31
2022-08-11T18:24:06.330Z,29.00
2022-08-11T18:26:28.267Z,28.80
2022-08-11T18:28:58.760Z,29.43
2022-08-11T18:31:22.623Z,29.50
2022-08-11T18:34:06.571Z,29.71
2022-08-11T18:36:36.604Z,29.93
2022-08-11T18:38:59.639Z,30.26
2022-08-11T18:41:23.994Z,30.15
2022-08-11T18:43:51.254Z,30.23
2022-08-11T18:46:18.513Z,30.96
2022-08-11T18:48:40.612Z,32.09
2022-08-11T18:51:30.035Z,32.17
2022-08-11T18:53:53.401Z,32.57
2022-08-11T18:56:20.718Z,32.32
2022-08-11T18:58:44.932Z,32.66
2022-08-11T19:01:06.911Z,32.57
2022-08-11T19:03:29.834Z,32.28
2022-08-11T19:06:32.350Z,31.69
2022-08-11T19:08:36.673Z,31.55
2022-08-11T19:11:01.926Z,31.75
2022-08-11T19:13:25.194Z,31.81
2022-08-11T19:15:47.217Z,31.66
2022-08-11T19:18:09.349Z,32.67
2022-08-11T19:20:33.281Z,32.29
2022-08-11T19:22:54.019Z,32.34
2022-08-11T19:25:16.157Z,32.02
2022-08-11T19:27:43.202Z,32.55
2022-08-11T19:30:13.511Z,32.59
2022-08-11T19:32:37.664Z,32.53
2022-08-11T19:34:59.287Z,32.79
2022-08-11T19:37:24.658Z,34.11
2022-08-11T19:39:47.337Z,33.11
2022-08-11T19:42:08.746Z,33.01
2022-08-11T19:44:32.992Z,33.00
2022-08-11T19:47:02.910Z,32.91
2022-08-11T19:49:28.493Z,32.76
2022-08-11T19:51:53.642Z,34.20
2022-08-11T19:54:16.197Z,35.37
2022-08-11T19:56:37.541Z,33.62
2022-08-11T19:58:59.103Z,34.11
2022-08-11T20:01:22.631Z,35.00
2022-08-11T20:03:43.719Z,35.19
2022-08-11T20:06:05.395Z,34.49
2022-08-11T20:08:26.214Z,33.40
2022-08-11T20:10:49.227Z,33.19
2022-08-11T20:13:11.757Z,33.52
2022-08-11T20:15:43.177Z,32.29
2022-08-11T20:18:07.438Z,32.05
2022-08-11T20:20:30.565Z,32.30
2022-08-11T20:22:53.642Z,32.30
2022-08-11T20:25:14.602Z,32.47
2022-08-11T20:27:35.902Z,32.62
2022-08-11T20:29:58.003Z,31.92
2022-08-11T20:32:19.692Z,33.13
2022-08-11T20:34:45.297Z,33.31
2022-08-11T20:37:07.590Z,34.14
2022-08-11T20:39:30.440Z,33.83
2022-08-11T20:41:58.443Z,33.64
2022-08-11T20:44:21.184Z,33.54
2022-08-11T20:46:43.790Z,34.64
2022-08-11T20:49:07.012Z,33.20
2022-08-11T20:51:33.843Z,34.12
2022-08-11T20:53:59.745Z,32.89
2022-08-11T20:56:28.490Z,33.52
2022-08-11T21:01:38.256Z,33.56
2022-08-11T21:03:59.761Z,32.66
2022-08-11T21:06:26.221Z,32.85
2022-08-11T21:08:57.261Z,33.08
2022-08-11T21:11:27.612Z,33.02
2022-08-11T21:13:52.857Z,33.22
2022-08-11T21:16:25.939Z,34.36
2022-08-11T21:18:49.669Z,33.92
2022-08-11T21:21:16.412Z,35.02
2022-08-11T21:23:39.270Z,34.72
2022-08-11T21:26:10.723Z,35.69
2022-08-11T21:28:33.807Z,35.75
2022-08-11T21:30:58.163Z,36.37
2022-08-11T21:33:19.082Z,36.52
2022-08-11T21:35:45.046Z,36.78
2022-08-11T21:38:08.984Z,37.10
2022-08-11T21:40:31.859Z,37.96
2022-08-11T21:42:58.978Z,38.19
2022-08-11T21:45:22.675Z,38.94
2022-08-11T21:47:45.209Z,39.07
2022-08-11T21:50:05.920Z,39.21
2022-08-11T21:52:26.620Z,40.34
2022-08-11T21:54:47.655Z,40.77
2022-08-11T21:57:09.955Z,41.15
2022-08-11T21:59:38.958Z,39.74
2022-08-11T22:02:00.680Z,40.55
2022-08-11T22:04:22.165Z,40.13
2022-08-11T22:06:56.035Z,40.17
2022-08-11T22:09:27.231Z,40.71
2022-08-11T22:12:29.798Z,40.65
2022-08-11T22:14:58.854Z,41.07
2022-08-11T22:17:19.700Z,40.86
2022-08-11T22:19:50.452Z,41.97
2022-08-11T22:22:13.293Z,42.00
2022-08-11T22:24:40.339Z,41.39
2022-08-11T22:27:02.019Z,41.88
2022-08-11T22:29:50.767Z,42.63
2022-08-11T22:32:07.696Z,43.10
2022-08-11T22:34:30.646Z,42.66
2022-08-11T22:36:52.852Z,42.35
2022-08-11T22:39:15.428Z,42.38
2022-08-11T22:41:37.011Z,41.88
2022-08-11T22:43:58.196Z,42.19
2022-08-11T22:46:19.149Z,41.52
2022-08-11T22:48:45.135Z,41.99
2022-08-11T22:51:07.519Z,42.40
2022-08-11T22:53:57.428Z,42.38
2022-08-11T22:56:11.924Z,42.08
2022-08-11T22:58:35.034Z,42.09
2022-08-11T23:00:56.494Z,41.21
2022-08-11T23:03:38.178Z,40.92
2022-08-11T23:06:02.321Z,40.90
2022-08-11T23:08:26.366Z,41.22
2022-08-11T23:10:48.480Z,41.38
2022-08-11T23:13:09.669Z,41.59
2022-08-11T23:15:31.201Z,42.37
2022-08-11T23:17:52.327Z,42.57
2022-08-11T23:20:29.810Z,42.83
2022-08-11T23:22:58.105Z,43.29
2022-08-11T23:25:19.038Z,44.28
2022-08-11T23:27:41.442Z,43.41
2022-08-11T23:30:03.646Z,43.50
2022-08-11T23:32:24.332Z,43.17
2022-08-11T23:35:36.991Z,43.03
2022-08-11T23:37:30.317Z,42.87
2022-08-11T23:40:01.930Z,42.96
2022-08-11T23:42:22.908Z,43.04
2022-08-11T23:44:46.443Z,42.97
2022-08-11T23:47:10.249Z,43.43
2022-08-11T23:49:32.205Z,43.35
2022-08-11T23:51:54.714Z,43.47
2022-08-11T23:54:16.202Z,43.40
2022-08-11T23:56:42.793Z,43.54
2022-08-11T23:59:04.585Z,44.00
